createdAt,value
2023-07-27T00:02:07.824Z,2.47
2023-07-27T00:04:34.235Z,2.97
2023-07-27T00:07:00.011Z,2.17
2023-07-27T00:09:25.691Z,2.72
2023-07-27T00:11:51.397Z,2.38
2023-07-27T00:14:17.063Z,2.47
2023-07-27T00:16:42.842Z,2.28
2023-07-27T00:19:08.520Z,2.00
2023-07-27T00:21:34.227Z,1.90
2023-07-27T00:23:59.840Z,2.17
2023-07-27T00:26:25.564Z,2.20
2023-07-27T00:28:51.508Z,2.65
2023-07-27T00:31:17.411Z,2.00
2023-07-27T00:33:43.111Z,1.98
2023-07-27T00:36:08.991Z,2.80
2023-07-27T00:38:34.763Z,2.47
2023-07-27T00:41:00.583Z,2.25
2023-07-27T00:43:26.310Z,1.92
2023-07-27T00:45:52.110Z,2.33
2023-07-27T00:48:18.659Z,2.35
2023-07-27T00:50:45.744Z,1.65
2023-07-27T00:53:13.200Z,1.83
2023-07-27T00:55:39.019Z,1.88
2023-07-27T00:58:04.990Z,1.70
2023-07-27T01:00:31.237Z,2.10
2023-07-27T01:02:57.514Z,2.05
2023-07-27T01:05:23.724Z,1.73
2023-07-27T01:07:49.572Z,1.70
2023-07-27T01:10:15.744Z,1.73
2023-07-27T01:12:52.800Z,1.90
2023-07-27T01:15:22.935Z,1.73
2023-07-27T01:17:56.391Z,1.60
2023-07-27T01:20:55.186Z,1.85
2023-07-27T01:23:45.252Z,2.95
2023-07-27T01:26:21.779Z,1.60
2023-07-27T01:28:59.776Z,1.50
2023-07-27T01:31:34.019Z,2.08
2023-07-27T01:34:03.258Z,1.65
2023-07-27T01:36:37.565Z,1.73
2023-07-27T01:39:05.287Z,1.70
2023-07-27T01:41:32.401Z,1.52
2023-07-27T01:44:00.830Z,1.70
2023-07-27T01:46:30.367Z,1.73
2023-07-27T01:48:57.047Z,1.50
2023-07-27T01:51:24.659Z,1.50
2023-07-27T01:53:53.289Z,1.90
2023-07-27T01:56:21.909Z,1.55
2023-07-27T01:58:48.940Z,1.77
2023-07-27T02:01:14.994Z,2.33
2023-07-27T02:03:41.276Z,1.60
2023-07-27T02:06:06.939Z,1.70
2023-07-27T02:08:32.563Z,1.70
2023-07-27T02:11:03.558Z,1.70
2023-07-27T02:13:38.778Z,1.90
2023-07-27T02:16:23.893Z,1.52
2023-07-27T02:18:52.233Z,1.50
2023-07-27T02:21:18.470Z,1.50
2023-07-27T02:23:45.810Z,1.73
2023-07-27T02:26:11.583Z,1.60
2023-07-27T02:28:37.295Z,2.17
2023-07-27T02:31:02.969Z,1.77
2023-07-27T02:33:28.689Z,1.77
2023-07-27T02:35:54.437Z,1.80
2023-07-27T02:38:20.094Z,1.70
2023-07-27T02:40:45.840Z,1.73
2023-07-27T02:43:11.938Z,1.70
2023-07-27T02:45:37.595Z,1.80
2023-07-27T02:48:03.728Z,1.70
2023-07-27T02:50:29.399Z,2.13
2023-07-27T02:52:55.038Z,1.70
2023-07-27T02:55:20.747Z,1.48
2023-07-27T02:57:46.378Z,1.55
2023-07-27T03:00:12.399Z,1.30
2023-07-27T03:02:38.130Z,1.60
2023-07-27T03:05:05.395Z,1.40
2023-07-27T03:07:31.097Z,1.50
2023-07-27T03:09:56.857Z,1.60
2023-07-27T03:12:22.504Z,1.55
2023-07-27T03:14:48.220Z,1.30
2023-07-27T03:17:13.911Z,2.17
2023-07-27T03:19:39.708Z,1.85
2023-07-27T03:22:05.956Z,2.47
2023-07-27T03:24:32.549Z,1.67
2023-07-27T03:26:59.644Z,2.50
2023-07-27T03:29:25.356Z,1.75
2023-07-27T03:31:51.042Z,1.55
2023-07-27T03:34:16.801Z,1.80
2023-07-27T03:36:42.447Z,1.48
2023-07-27T03:39:08.436Z,1.75
2023-07-27T03:41:34.178Z,1.90
2023-07-27T03:44:00.314Z,1.90
2023-07-27T03:46:26.056Z,1.60
2023-07-27T03:48:52.331Z,2.08
2023-07-27T03:51:18.125Z,2.35
2023-07-27T03:53:43.802Z,2.47
2023-07-27T03:56:09.468Z,1.55
2023-07-27T03:58:35.397Z,1.75
2023-07-27T04:01:01.149Z,1.90
2023-07-27T04:03:26.837Z,1.73
2023-07-27T04:05:52.653Z,1.42
2023-07-27T04:08:21.289Z,1.65
2023-07-27T04:10:46.999Z,1.92
2023-07-27T04:13:12.625Z,1.40
2023-07-27T04:15:38.344Z,2.03
2023-07-27T04:18:05.019Z,1.70
2023-07-27T04:20:30.773Z,2.15
2023-07-27T04:22:56.767Z,1.60
2023-07-27T04:25:23.426Z,1.80
2023-07-27T04:27:52.318Z,1.85
2023-07-27T04:30:18.558Z,1.40
2023-07-27T04:32:44.528Z,2.30
2023-07-27T04:35:10.259Z,1.70
2023-07-27T04:37:36.971Z,1.73
2023-07-27T04:40:04.874Z,2.53
2023-07-27T04:42:30.583Z,2.92
2023-07-27T04:44:57.391Z,1.90
2023-07-27T04:47:24.990Z,1.75
2023-07-27T04:49:50.699Z,2.15
2023-07-27T04:52:16.495Z,2.45
2023-07-27T04:54:42.220Z,2.20
2023-07-27T04:57:08.007Z,1.83
2023-07-27T04:59:33.641Z,1.85
2023-07-27T05:01:59.441Z,1.67
2023-07-27T05:04:25.186Z,1.60
2023-07-27T05:06:50.958Z,1.88
2023-07-27T05:09:16.668Z,1.42
2023-07-27T05:11:42.386Z,1.77
2023-07-27T05:14:08.409Z,1.95
2023-07-27T05:16:34.334Z,1.23
2023-07-27T05:19:00.128Z,1.55
2023-07-27T05:21:25.830Z,1.95
2023-07-27T05:23:52.401Z,1.40
2023-07-27T05:26:18.122Z,1.10
2023-07-27T05:28:45.776Z,1.30
2023-07-27T05:31:11.661Z,1.25
2023-07-27T05:33:37.374Z,1.33
2023-07-27T05:36:03.275Z,1.75
2023-07-27T05:38:28.898Z,1.25
2023-07-27T05:40:59.265Z,1.15
2023-07-27T05:43:25.168Z,0.80
2023-07-27T05:45:50.853Z,1.58
2023-07-27T05:48:16.769Z,1.17
2023-07-27T05:50:42.481Z,1.20
2023-07-27T05:53:08.133Z,1.88
2023-07-27T05:55:33.852Z,1.67
2023-07-27T05:58:10.278Z,1.50
2023-07-27T06:00:40.447Z,1.27
2023-07-27T06:03:06.103Z,1.98
2023-07-27T06:05:31.812Z,1.17
2023-07-27T06:07:57.450Z,1.20
2023-07-27T06:10:23.144Z,1.35
2023-07-27T06:12:48.901Z,1.20
2023-07-27T06:15:14.573Z,1.27
2023-07-27T06:17:40.278Z,1.58
2023-07-27T06:20:06.477Z,1.45
2023-07-27T06:22:32.208Z,1.40
2023-07-27T06:24:58.083Z,1.50
2023-07-27T06:27:23.842Z,1.38
2023-07-27T06:29:49.697Z,1.63
2023-07-27T06:32:15.608Z,1.20
2023-07-27T06:34:41.338Z,1.30
2023-07-27T06:37:06.980Z,1.52
2023-07-27T06:39:32.727Z,1.38
2023-07-27T06:41:58.440Z,1.50
2023-07-27T06:44:24.069Z,1.60
2023-07-27T06:46:49.920Z,2.03
2023-07-27T06:49:15.620Z,1.50
2023-07-27T06:51:41.257Z,1.70
2023-07-27T06:54:06.995Z,1.38
2023-07-27T06:56:33.123Z,2.10
2023-07-27T06:58:59.384Z,1.70
2023-07-27T07:01:25.012Z,1.63
2023-07-27T07:03:50.702Z,1.40
2023-07-27T07:06:16.578Z,1.30
2023-07-27T07:08:42.347Z,2.33
2023-07-27T07:11:07.995Z,1.45
2023-07-27T07:13:33.700Z,1.08
2023-07-27T07:15:59.429Z,1.45
2023-07-27T07:18:25.341Z,1.67
2023-07-27T07:20:53.101Z,1.60
2023-07-27T07:23:19.175Z,1.38
2023-07-27T07:25:44.819Z,2.20
2023-07-27T07:28:10.450Z,1.40
2023-07-27T07:30:37.567Z,1.45
2023-07-27T07:33:03.254Z,2.10
2023-07-27T07:35:29.035Z,1.90
2023-07-27T07:37:54.669Z,1.40
2023-07-27T07:40:20.626Z,1.80
2023-07-27T07:42:46.909Z,1.63
2023-07-27T07:45:12.783Z,2.00
2023-07-27T07:47:38.520Z,2.20
2023-07-27T07:50:04.813Z,2.17
2023-07-27T07:52:31.080Z,1.65
2023-07-27T07:54:57.200Z,2.13
2023-07-27T07:57:22.905Z,2.22
2023-07-27T07:59:48.631Z,1.83
2023-07-27T08:02:14.255Z,2.28
2023-07-27T08:04:39.903Z,1.55
2023-07-27T08:07:06.662Z,2.15
2023-07-27T08:09:32.339Z,1.75
2023-07-27T08:11:58.123Z,2.50
2023-07-27T08:14:23.764Z,2.28
2023-07-27T08:16:49.541Z,2.33
2023-07-27T08:19:15.275Z,1.92
2023-07-27T08:21:41.076Z,2.08
2023-07-27T08:24:06.732Z,1.95
2023-07-27T08:26:32.738Z,1.90
2023-07-27T08:28:59.175Z,2.42
2023-07-27T08:31:24.964Z,2.47
2023-07-27T08:33:50.704Z,1.55
2023-07-27T08:36:17.463Z,2.33
2023-07-27T08:38:43.165Z,2.20
2023-07-27T08:41:08.921Z,2.20
2023-07-27T08:43:35.575Z,1.77
2023-07-27T08:46:02.634Z,1.80
2023-07-27T08:48:28.531Z,2.08
2023-07-27T08:50:54.762Z,2.33
2023-07-27T08:53:20.773Z,2.67
2023-07-27T08:55:46.496Z,1.95
2023-07-27T08:58:12.198Z,1.73
2023-07-27T09:00:38.557Z,2.45
2023-07-27T09:03:04.592Z,2.35
2023-07-27T09:05:41.510Z,1.85
2023-07-27T09:08:16.107Z,1.98
2023-07-27T09:10:43.649Z,1.87
2023-07-27T09:13:09.538Z,1.83
2023-07-27T09:15:36.802Z,1.73
2023-07-27T09:18:10.500Z,1.77
2023-07-27T09:20:36.459Z,2.05
2023-07-27T09:23:02.324Z,1.83
2023-07-27T09:25:28.228Z,2.10
2023-07-27T09:27:55.644Z,2.13
2023-07-27T09:30:22.917Z,2.30
2023-07-27T09:32:49.388Z,1.90
2023-07-27T09:35:16.835Z,2.22
2023-07-27T09:37:44.037Z,2.60
2023-07-27T09:40:12.335Z,1.92
2023-07-27T09:42:38.039Z,1.80
2023-07-27T09:45:04.181Z,2.20
2023-07-27T09:47:30.258Z,2.72
2023-07-27T09:49:58.534Z,2.65
2023-07-27T09:52:25.781Z,2.53
2023-07-27T09:54:54.232Z,1.42
2023-07-27T09:57:20.878Z,2.40
2023-07-27T09:59:46.759Z,2.10
2023-07-27T10:02:12.448Z,2.67
2023-07-27T10:04:38.176Z,2.80
2023-07-27T10:07:05.377Z,2.45
2023-07-27T10:09:31.073Z,2.42
2023-07-27T10:11:58.521Z,2.40
2023-07-27T10:14:26.084Z,2.25
2023-07-27T10:16:59.822Z,2.53
2023-07-27T10:19:26.864Z,2.40
2023-07-27T10:21:52.609Z,2.30
2023-07-27T10:24:23.294Z,3.10
2023-07-27T10:26:52.537Z,2.45
2023-07-27T10:29:23.000Z,2.70
2023-07-27T10:32:09.491Z,2.50
2023-07-27T10:34:40.991Z,2.97
2023-07-27T10:37:12.485Z,2.60
2023-07-27T10:39:50.645Z,2.20
2023-07-27T10:42:19.065Z,2.17
2023-07-27T10:45:23.329Z,2.13
2023-07-27T10:47:49.397Z,2.70
2023-07-27T10:50:15.383Z,2.20
2023-07-27T10:52:41.166Z,1.98
2023-07-27T10:55:07.957Z,2.00
2023-07-27T10:57:34.802Z,2.10
2023-07-27T11:00:01.641Z,2.03
2023-07-27T11:02:29.508Z,1.52
2023-07-27T11:04:57.109Z,1.80
2023-07-27T11:07:30.791Z,1.85
2023-07-27T11:09:57.009Z,1.73
2023-07-27T11:12:23.300Z,1.75
2023-07-27T11:14:49.008Z,1.75
2023-07-27T11:17:14.877Z,1.52
2023-07-27T11:19:42.182Z,1.50
2023-07-27T11:22:08.284Z,1.52
2023-07-27T11:24:34.752Z,1.65
2023-07-27T11:27:00.624Z,1.40
2023-07-27T11:29:26.637Z,1.33
2023-07-27T11:31:57.019Z,1.80
2023-07-27T11:34:24.216Z,1.20
2023-07-27T11:36:52.137Z,1.40
2023-07-27T11:39:17.989Z,1.38
2023-07-27T11:41:48.513Z,1.15
2023-07-27T11:44:15.485Z,1.20
2023-07-27T11:46:44.234Z,1.10
2023-07-27T11:49:09.971Z,1.10
2023-07-27T11:51:38.785Z,1.15
2023-07-27T11:54:04.414Z,0.75
2023-07-27T11:56:36.553Z,0.95
2023-07-27T11:59:04.538Z,1.30
2023-07-27T12:01:33.384Z,1.15
2023-07-27T12:03:59.214Z,0.82
2023-07-27T12:06:25.091Z,0.68
2023-07-27T12:08:50.981Z,0.98
2023-07-27T12:16:19.240Z,0.68
2023-07-27T12:23:43.731Z,0.80
2023-07-27T12:28:41.189Z,0.60
2023-07-27T12:33:37.190Z,0.73
2023-07-27T12:36:02.932Z,0.60
2023-07-27T12:40:57.452Z,0.40
2023-07-27T12:43:23.382Z,0.73
2023-07-27T12:45:49.088Z,0.50
2023-07-27T12:48:14.783Z,0.60
2023-07-27T12:50:40.416Z,0.50
2023-07-27T12:53:06.127Z,0.40
2023-07-27T12:55:31.772Z,0.40
2023-07-27T12:57:57.495Z,0.50
2023-07-27T13:00:23.123Z,0.50
2023-07-27T13:02:48.939Z,0.40
2023-07-27T13:05:14.674Z,0.50
2023-07-27T13:07:41.657Z,0.30
2023-07-27T13:10:08.302Z,0.32
2023-07-27T13:12:34.020Z,0.38
2023-07-27T13:14:59.655Z,0.32
2023-07-27T13:17:25.381Z,0.40
2023-07-27T13:19:51.017Z,0.43
2023-07-27T13:22:16.821Z,0.68
2023-07-27T13:24:42.454Z,0.52
2023-07-27T13:27:08.150Z,0.30
2023-07-27T13:29:33.793Z,0.40
2023-07-27T13:31:59.418Z,0.30
2023-07-27T13:34:25.107Z,0.40
2023-07-27T13:36:50.750Z,0.40
2023-07-27T13:39:16.680Z,0.35
2023-07-27T13:41:42.406Z,0.45
2023-07-27T13:44:08.112Z,0.40
2023-07-27T13:46:33.772Z,0.45
2023-07-27T13:48:59.516Z,0.30
2023-07-27T13:51:25.141Z,0.30
2023-07-27T13:53:50.825Z,0.35
2023-07-27T13:56:16.487Z,0.50
2023-07-27T13:58:42.230Z,0.55
2023-07-27T14:01:08.024Z,0.50
2023-07-27T14:03:33.945Z,0.68
2023-07-27T14:05:59.677Z,0.40
2023-07-27T14:08:25.417Z,0.45
2023-07-27T14:10:51.127Z,0.40
2023-07-27T14:13:16.960Z,0.40
2023-07-27T14:15:42.669Z,0.22
2023-07-27T14:18:08.402Z,0.20
2023-07-27T14:20:34.522Z,0.30
2023-07-27T14:23:00.279Z,0.30
2023-07-27T14:25:27.601Z,0.77
2023-07-27T14:30:22.009Z,0.28
2023-07-27T14:32:47.697Z,0.43
2023-07-27T14:35:13.411Z,0.32
2023-07-27T14:37:39.042Z,0.30
2023-07-27T14:40:05.504Z,0.40
2023-07-27T14:42:31.392Z,0.50
2023-07-27T14:44:57.082Z,0.35
2023-07-27T14:47:22.848Z,0.43
2023-07-27T14:52:17.293Z,0.30
2023-07-27T14:54:43.005Z,0.30
2023-07-27T14:57:13.791Z,0.25
2023-07-27T14:59:43.709Z,0.47
2023-07-27T15:02:28.309Z,0.40
2023-07-27T15:04:54.789Z,0.43
2023-07-27T15:07:20.617Z,0.50
2023-07-27T15:09:48.536Z,0.38
2023-07-27T15:12:14.466Z,0.47
2023-07-27T15:14:40.208Z,0.75
2023-07-27T15:17:06.325Z,0.40
2023-07-27T15:19:32.313Z,0.50
2023-07-27T15:21:58.123Z,0.50
2023-07-27T15:24:23.802Z,0.55
2023-07-27T15:26:51.255Z,0.50
2023-07-27T15:29:16.973Z,0.50
2023-07-27T15:31:42.599Z,0.60
2023-07-27T15:34:08.589Z,0.50
2023-07-27T15:36:34.468Z,0.60
2023-07-27T15:39:00.293Z,0.75
2023-07-27T15:41:26.011Z,0.65
2023-07-27T15:43:51.645Z,0.68
2023-07-27T15:46:17.456Z,0.70
2023-07-27T15:48:43.213Z,0.50
2023-07-27T15:51:08.984Z,0.50
2023-07-27T15:53:34.678Z,0.40
2023-07-27T15:56:00.557Z,0.50
2023-07-27T15:58:26.335Z,0.70
2023-07-27T16:00:56.800Z,0.70
2023-07-27T16:03:22.572Z,0.80
2023-07-27T16:05:48.273Z,0.80
2023-07-27T16:08:14.013Z,0.63
2023-07-27T16:10:42.909Z,0.70
2023-07-27T16:13:09.045Z,1.00
2023-07-27T16:15:34.732Z,1.40
2023-07-27T16:18:00.481Z,1.25
2023-07-27T16:20:26.360Z,0.98
2023-07-27T16:22:52.134Z,1.27
2023-07-27T16:25:20.943Z,1.40
2023-07-27T16:27:46.871Z,0.90
2023-07-27T16:30:12.733Z,1.38
2023-07-27T16:32:38.508Z,0.90
2023-07-27T16:35:04.493Z,0.82
2023-07-27T16:37:30.183Z,1.00
2023-07-27T16:39:56.248Z,0.73
2023-07-27T16:42:21.879Z,0.90
2023-07-27T16:44:47.580Z,0.70
2023-07-27T16:47:13.224Z,0.68
2023-07-27T16:49:38.856Z,0.88
2023-07-27T16:52:05.227Z,1.55
2023-07-27T16:54:30.906Z,1.27
2023-07-27T16:56:56.551Z,0.70
2023-07-27T16:59:22.213Z,0.75
2023-07-27T17:01:48.026Z,0.70
2023-07-27T17:04:13.852Z,0.70
2023-07-27T17:06:39.555Z,0.52
2023-07-27T17:09:05.191Z,0.80
2023-07-27T17:11:30.945Z,0.60
2023-07-27T17:13:56.653Z,0.70
2023-07-27T17:16:22.427Z,0.57
2023-07-27T17:18:50.579Z,0.60
2023-07-27T17:21:16.323Z,0.50
2023-07-27T17:23:42.057Z,0.40
2023-07-27T17:26:07.720Z,0.75
2023-07-27T17:28:33.793Z,0.65
2023-07-27T17:31:01.275Z,0.52
2023-07-27T17:33:27.824Z,0.70
2023-07-27T17:35:57.979Z,0.70
2023-07-27T17:38:24.984Z,0.43
2023-07-27T17:40:50.645Z,0.50
2023-07-27T17:43:16.352Z,0.38
2023-07-27T17:45:42.359Z,0.40
2023-07-27T17:48:08.054Z,0.50
2023-07-27T17:50:34.205Z,0.30
2023-07-27T17:52:59.914Z,0.38
2023-07-27T17:55:25.595Z,0.50
2023-07-27T17:57:51.216Z,0.30
2023-07-27T18:00:17.179Z,0.30
2023-07-27T18:02:43.152Z,0.85
2023-07-27T18:05:09.230Z,0.30
2023-07-27T18:07:35.443Z,0.43
2023-07-27T18:10:01.693Z,0.20
2023-07-27T18:12:27.428Z,0.28
2023-07-27T18:14:53.054Z,0.30
2023-07-27T18:17:18.818Z,0.30
2023-07-27T18:19:46.228Z,0.30
2023-07-27T18:22:11.983Z,0.30
2023-07-27T18:24:37.633Z,0.85
2023-07-27T18:27:03.666Z,0.22
2023-07-27T18:29:29.333Z,0.30
2023-07-27T18:31:55.032Z,0.30
2023-07-27T18:34:20.748Z,0.20
2023-07-27T18:36:47.065Z,0.35
2023-07-27T18:39:12.718Z,0.40
2023-07-27T18:41:38.367Z,0.40
2023-07-27T18:44:04.164Z,3.33
2023-07-27T18:46:30.066Z,1.05
2023-07-27T18:48:57.489Z,1.15
2023-07-27T18:51:25.461Z,0.60
2023-07-27T18:53:51.401Z,0.50
2023-07-27T18:56:17.067Z,0.50
2023-07-27T18:58:42.771Z,0.30
2023-07-27T19:01:08.529Z,1.02
2023-07-27T19:03:36.957Z,0.80
2023-07-27T19:06:02.678Z,1.00
2023-07-27T19:08:28.821Z,0.40
2023-07-27T19:10:54.557Z,0.60
2023-07-27T19:13:20.523Z,0.75
2023-07-27T19:15:49.879Z,1.20
2023-07-27T19:18:16.510Z,0.50
2023-07-27T19:20:42.459Z,0.25
2023-07-27T19:23:08.574Z,0.73
2023-07-27T19:25:41.859Z,0.60
2023-07-27T19:28:08.950Z,0.47
2023-07-27T19:30:35.582Z,0.70
2023-07-27T19:33:05.705Z,0.73
2023-07-27T19:35:31.346Z,0.60
2023-07-27T19:37:57.051Z,0.50
2023-07-27T19:40:22.753Z,0.50
2023-07-27T19:42:48.594Z,0.50
2023-07-27T19:45:14.249Z,0.70
2023-07-27T19:47:39.980Z,1.13
2023-07-27T19:50:06.255Z,1.10
2023-07-27T19:52:32.079Z,0.70
2023-07-27T19:54:57.772Z,1.08
2023-07-27T19:57:23.549Z,1.25
2023-07-27T19:59:55.628Z,1.13
2023-07-27T20:02:21.934Z,0.50
2023-07-27T20:04:48.201Z,0.60
2023-07-27T20:07:13.891Z,0.70
2023-07-27T20:09:39.516Z,0.50
2023-07-27T20:12:05.738Z,0.60
2023-07-27T20:14:35.568Z,0.50
2023-07-27T20:17:02.634Z,0.60
2023-07-27T20:19:29.280Z,0.60
2023-07-27T20:21:55.520Z,0.43
2023-07-27T20:24:21.414Z,0.63
2023-07-27T20:26:47.034Z,0.80
2023-07-27T20:29:12.832Z,0.73
2023-07-27T20:31:38.477Z,1.05
2023-07-27T20:34:04.142Z,0.40
2023-07-27T20:36:30.253Z,0.50
2023-07-27T20:38:57.123Z,0.47
2023-07-27T20:41:23.228Z,0.80
2023-07-27T20:43:52.044Z,0.28
2023-07-27T20:46:17.747Z,0.65
2023-07-27T20:48:43.573Z,0.57
2023-07-27T20:51:09.313Z,0.50
2023-07-27T20:53:36.171Z,0.52
2023-07-27T20:56:15.417Z,0.50
2023-07-27T20:58:41.757Z,0.50
2023-07-27T21:01:07.998Z,0.57
2023-07-27T21:03:33.769Z,0.50
2023-07-27T21:06:05.917Z,1.13
2023-07-27T21:08:33.232Z,0.55
2023-07-27T21:10:59.135Z,0.57
2023-07-27T21:13:24.849Z,0.40
2023-07-27T21:16:04.805Z,0.75
2023-07-27T21:18:31.027Z,0.63
2023-07-27T21:20:56.796Z,0.88
2023-07-27T21:23:23.032Z,0.60
2023-07-27T21:25:57.206Z,0.65
2023-07-27T21:28:22.952Z,0.68
2023-07-27T21:30:48.599Z,0.63
2023-07-27T21:33:27.307Z,0.60
2023-07-27T21:35:54.576Z,0.65
2023-07-27T21:38:20.215Z,0.70
2023-07-27T21:40:45.912Z,0.52
2023-07-27T21:43:12.292Z,0.60
2023-07-27T21:45:37.964Z,0.43
2023-07-27T21:48:03.932Z,0.50
2023-07-27T21:50:29.631Z,0.73
2023-07-27T21:52:55.256Z,0.43
2023-07-27T21:55:21.217Z,0.30
2023-07-27T21:57:46.858Z,0.50
2023-07-27T22:00:12.997Z,0.50
2023-07-27T22:02:38.687Z,0.60
2023-07-27T22:05:04.873Z,0.50
2023-07-27T22:07:30.568Z,1.02
2023-07-27T22:09:56.218Z,0.50
2023-07-27T22:12:22.003Z,0.50
2023-07-27T22:14:47.633Z,0.70
2023-07-27T22:17:13.278Z,0.47
2023-07-27T22:19:39.463Z,0.43
2023-07-27T22:22:05.401Z,0.40
2023-07-27T22:24:31.128Z,0.60
2023-07-27T22:26:57.083Z,0.45
2023-07-27T22:29:23.447Z,0.52
2023-07-27T22:31:49.175Z,0.30
2023-07-27T22:34:14.864Z,0.30
2023-07-27T22:36:40.608Z,0.38
2023-07-27T22:39:06.432Z,0.30
2023-07-27T22:41:32.181Z,0.40
2023-07-27T22:43:58.543Z,0.20
2023-07-27T22:46:24.373Z,0.20
2023-07-27T22:48:51.041Z,0.40
2023-07-27T22:51:16.924Z,0.50
2023-07-27T22:53:42.697Z,0.40
2023-07-27T22:56:08.328Z,0.30
2023-07-27T22:58:34.144Z,0.30
2023-07-27T23:01:10.796Z,0.32
2023-07-27T23:03:36.828Z,0.40
2023-07-27T23:06:02.780Z,0.40
2023-07-27T23:08:28.444Z,0.38
2023-07-27T23:10:54.141Z,0.43
2023-07-27T23:13:19.943Z,0.40
2023-07-27T23:15:45.715Z,0.52
2023-07-27T23:18:11.435Z,0.40
2023-07-27T23:20:37.175Z,0.47
2023-07-27T23:23:02.840Z,0.43
2023-07-27T23:25:28.617Z,1.17
2023-07-27T23:27:54.332Z,0.50
2023-07-27T23:30:20.155Z,0.52
2023-07-27T23:32:45.831Z,0.70
2023-07-27T23:35:11.488Z,0.65
2023-07-27T23:37:37.170Z,0.70
2023-07-27T23:40:03.004Z,0.60
2023-07-27T23:42:29.384Z,0.50
2023-07-27T23:44:55.289Z,0.93
2023-07-27T23:47:20.997Z,0.65
2023-07-27T23:49:46.777Z,0.68
2023-07-27T23:52:12.736Z,0.63
2023-07-27T23:54:38.457Z,0.75
2023-07-27T23:57:04.441Z,1.00
2023-07-27T23:59:30.573Z,0.50
